sensor_id;sensor_type;location;lat;lon;timestamp;pressure;altitude;pressure_sealevel;temperature;humidity
72909;BME280;61051;62.624;17.950;2023-05-14T00:02:14;102500.26;;;5.83;76.92
72909;BME280;61051;62.624;17.950;2023-05-14T00:04:43;102497.26;;;5.74;77.85
72909;BME280;61051;62.624;17.950;2023-05-14T00:07:12;102498.16;;;5.48;78.03
72909;BME280;61051;62.624;17.950;2023-05-14T00:09:41;102500.90;;;5.47;78.01
72909;BME280;61051;62.624;17.950;2023-05-14T00:12:09;102502.61;;;5.41;78.77
72909;BME280;61051;62.624;17.950;2023-05-14T00:14:38;102499.56;;;5.48;79.17
72909;BME280;61051;62.624;17.950;2023-05-14T00:17:06;102498.48;;;5.33;79.08
72909;BME280;61051;62.624;17.950;2023-05-14T00:19:34;102499.48;;;5.39;77.73
72909;BME280;61051;62.624;17.950;2023-05-14T00:22:03;102496.17;;;5.43;78.74
72909;BME280;61051;62.624;17.950;2023-05-14T00:24:33;102501.97;;;5.27;78.22
72909;BME280;61051;62.624;17.950;2023-05-14T00:27:01;102500.94;;;5.20;79.03
72909;BME280;61051;62.624;17.950;2023-05-14T00:29:30;102500.52;;;5.08;78.41
72909;BME280;61051;62.624;17.950;2023-05-14T00:31:59;102499.63;;;5.14;79.77
72909;BME280;61051;62.624;17.950;2023-05-14T00:34:27;102499.68;;;5.21;78.75
72909;BME280;61051;62.624;17.950;2023-05-14T00:36:56;102500.01;;;5.21;79.13
72909;BME280;61051;62.624;17.950;2023-05-14T00:39:24;102502.28;;;5.09;78.69
72909;BME280;61051;62.624;17.950;2023-05-14T00:41:52;102499.62;;;4.89;80.10
72909;BME280;61051;62.624;17.950;2023-05-14T00:44:21;102498.99;;;4.99;80.64
72909;BME280;61051;62.624;17.950;2023-05-14T00:46:50;102497.32;;;5.00;80.89
72909;BME280;61051;62.624;17.950;2023-05-14T00:49:19;102498.66;;;4.91;81.16
72909;BME280;61051;62.624;17.950;2023-05-14T00:51:49;102494.93;;;4.89;81.76
72909;BME280;61051;62.624;17.950;2023-05-14T00:54:19;102498.42;;;5.00;81.10
72909;BME280;61051;62.624;17.950;2023-05-14T00:56:50;102495.19;;;4.94;81.35
72909;BME280;61051;62.624;17.950;2023-05-14T00:59:18;102495.31;;;4.89;81.26
72909;BME280;61051;62.624;17.950;2023-05-14T01:01:48;102495.91;;;4.82;81.27
72909;BME280;61051;62.624;17.950;2023-05-14T01:04:17;102494.94;;;4.85;81.42
72909;BME280;61051;62.624;17.950;2023-05-14T01:06:53;102492.06;;;4.67;81.80
72909;BME280;61051;62.624;17.950;2023-05-14T01:09:33;102494.88;;;4.56;81.83
72909;BME280;61051;62.624;17.950;2023-05-14T01:12:09;102490.79;;;4.58;82.39
72909;BME280;61051;62.624;17.950;2023-05-14T01:14:44;102492.04;;;4.54;84.28
72909;BME280;61051;62.624;17.950;2023-05-14T01:17:17;102491.70;;;4.66;84.19
72909;BME280;61051;62.624;17.950;2023-05-14T01:19:50;102488.86;;;4.57;84.06
72909;BME280;61051;62.624;17.950;2023-05-14T01:22:18;102488.02;;;4.62;82.91
72909;BME280;61051;62.624;17.950;2023-05-14T01:24:49;102489.37;;;4.40;82.46
72909;BME280;61051;62.624;17.950;2023-05-14T01:27:24;102488.82;;;4.37;83.71
72909;BME280;61051;62.624;17.950;2023-05-14T01:30:00;102487.03;;;4.57;83.56
72909;BME280;61051;62.624;17.950;2023-05-14T01:32:31;102480.14;;;4.40;84.06
72909;BME280;61051;62.624;17.950;2023-05-14T01:35:02;102483.02;;;4.32;83.35
72909;BME280;61051;62.624;17.950;2023-05-14T01:37:31;102484.23;;;4.42;82.93
72909;BME280;61051;62.624;17.950;2023-05-14T01:40:00;102483.28;;;4.42;82.82
72909;BME280;61051;62.624;17.950;2023-05-14T01:42:30;102484.57;;;4.50;82.86
72909;BME280;61051;62.624;17.950;2023-05-14T01:45:00;102481.57;;;4.54;82.52
72909;BME280;61051;62.624;17.950;2023-05-14T01:47:29;102480.38;;;4.54;82.69
72909;BME280;61051;62.624;17.950;2023-05-14T01:49:58;102479.12;;;4.30;83.18
72909;BME280;61051;62.624;17.950;2023-05-14T01:52:27;102480.70;;;4.35;82.85
72909;BME280;61051;62.624;17.950;2023-05-14T01:54:56;102478.53;;;4.27;82.47
72909;BME280;61051;62.624;17.950;2023-05-14T01:57:24;102476.74;;;4.20;82.42
72909;BME280;61051;62.624;17.950;2023-05-14T01:59:53;102478.27;;;4.11;82.80
72909;BME280;61051;62.624;17.950;2023-05-14T02:02:21;102477.48;;;4.07;83.76
72909;BME280;61051;62.624;17.950;2023-05-14T02:04:50;102479.51;;;4.17;83.82
72909;BME280;61051;62.624;17.950;2023-05-14T02:07:19;102478.91;;;4.19;83.44
72909;BME280;61051;62.624;17.950;2023-05-14T02:09:49;102480.25;;;3.99;83.74
72909;BME280;61051;62.624;17.950;2023-05-14T02:12:17;102478.59;;;4.01;84.17
72909;BME280;61051;62.624;17.950;2023-05-14T02:14:46;102480.25;;;4.06;83.40
72909;BME280;61051;62.624;17.950;2023-05-14T02:17:14;102477.74;;;3.98;83.69
72909;BME280;61051;62.624;17.950;2023-05-14T02:19:43;102479.14;;;3.83;84.00
72909;BME280;61051;62.624;17.950;2023-05-14T02:22:12;102476.16;;;3.89;84.16
72909;BME280;61051;62.624;17.950;2023-05-14T02:24:41;102474.83;;;3.91;83.07
72909;BME280;61051;62.624;17.950;2023-05-14T02:27:10;102474.29;;;3.90;83.12
72909;BME280;61051;62.624;17.950;2023-05-14T02:29:38;102470.76;;;3.85;82.59
72909;BME280;61051;62.624;17.950;2023-05-14T02:32:07;102469.47;;;3.75;83.24
72909;BME280;61051;62.624;17.950;2023-05-14T02:34:36;102469.91;;;3.88;83.57
72909;BME280;61051;62.624;17.950;2023-05-14T02:37:05;102470.56;;;3.82;82.70
72909;BME280;61051;62.624;17.950;2023-05-14T02:39:35;102473.08;;;3.79;83.06
72909;BME280;61051;62.624;17.950;2023-05-14T02:42:04;102475.25;;;3.83;84.94
72909;BME280;61051;62.624;17.950;2023-05-14T02:44:33;102477.08;;;3.91;85.41
72909;BME280;61051;62.624;17.950;2023-05-14T02:47:01;102475.83;;;4.08;84.45
72909;BME280;61051;62.624;17.950;2023-05-14T02:49:29;102475.11;;;4.07;83.31
72909;BME280;61051;62.624;17.950;2023-05-14T02:51:57;102475.90;;;4.01;84.81
72909;BME280;61051;62.624;17.950;2023-05-14T02:54:26;102472.58;;;4.07;85.08
72909;BME280;61051;62.624;17.950;2023-05-14T02:56:54;102469.05;;;4.17;84.49
72909;BME280;61051;62.624;17.950;2023-05-14T02:59:23;102469.51;;;4.08;84.15
72909;BME280;61051;62.624;17.950;2023-05-14T03:01:52;102466.67;;;4.16;84.55
72909;BME280;61051;62.624;17.950;2023-05-14T03:04:20;102463.37;;;4.22;84.13
72909;BME280;61051;62.624;17.950;2023-05-14T03:06:48;102463.64;;;4.24;84.26
72909;BME280;61051;62.624;17.950;2023-05-14T03:09:17;102463.67;;;4.38;83.80
72909;BME280;61051;62.624;17.950;2023-05-14T03:11:45;102463.29;;;4.39;84.30
72909;BME280;61051;62.624;17.950;2023-05-14T03:14:13;102463.22;;;4.41;84.27
72909;BME280;61051;62.624;17.950;2023-05-14T03:16:42;102459.34;;;4.54;83.94
72909;BME280;61051;62.624;17.950;2023-05-14T03:19:10;102459.13;;;4.59;83.37
72909;BME280;61051;62.624;17.950;2023-05-14T03:21:39;102458.54;;;4.79;83.94
72909;BME280;61051;62.624;17.950;2023-05-14T03:24:07;102458.70;;;4.89;82.09
72909;BME280;61051;62.624;17.950;2023-05-14T03:26:37;102450.27;;;4.93;82.48
72909;BME280;61051;62.624;17.950;2023-05-14T03:29:04;102451.90;;;5.10;82.22
72909;BME280;61051;62.624;17.950;2023-05-14T03:31:33;102451.68;;;5.01;81.25
72909;BME280;61051;62.624;17.950;2023-05-14T03:34:02;102451.60;;;5.15;81.04
72909;BME280;61051;62.624;17.950;2023-05-14T03:36:31;102451.62;;;5.22;81.35
72909;BME280;61051;62.624;17.950;2023-05-14T03:39:00;102450.41;;;5.24;80.42
72909;BME280;61051;62.624;17.950;2023-05-14T03:41:29;102449.66;;;5.33;80.59
72909;BME280;61051;62.624;17.950;2023-05-14T03:43:58;102444.52;;;5.44;80.73
72909;BME280;61051;62.624;17.950;2023-05-14T03:46:27;102444.30;;;5.54;80.50
72909;BME280;61051;62.624;17.950;2023-05-14T03:48:55;102445.34;;;5.51;80.93
72909;BME280;61051;62.624;17.950;2023-05-14T03:51:24;102441.36;;;5.62;80.91
72909;BME280;61051;62.624;17.950;2023-05-14T03:53:52;102441.13;;;5.71;79.32
72909;BME280;61051;62.624;17.950;2023-05-14T03:56:21;102442.23;;;5.70;79.39
72909;BME280;61051;62.624;17.950;2023-05-14T03:58:51;102439.57;;;5.94;79.93
72909;BME280;61051;62.624;17.950;2023-05-14T04:03:16;102439.29;;;5.87;78.92
72909;BME280;61051;62.624;17.950;2023-05-14T04:05:45;102437.08;;;6.15;78.29
72909;BME280;61051;62.624;17.950;2023-05-14T04:08:13;102435.18;;;6.08;78.80
72909;BME280;61051;62.624;17.950;2023-05-14T04:10:41;102434.35;;;6.21;78.75
72909;BME280;61051;62.624;17.950;2023-05-14T04:13:11;102433.65;;;6.16;77.84
72909;BME280;61051;62.624;17.950;2023-05-14T04:15:39;102433.87;;;6.32;77.52
72909;BME280;61051;62.624;17.950;2023-05-14T04:18:07;102435.32;;;6.34;77.49
72909;BME280;61051;62.624;17.950;2023-05-14T04:20:35;102431.50;;;6.55;78.45
72909;BME280;61051;62.624;17.950;2023-05-14T04:23:04;102434.97;;;6.52;77.39
72909;BME280;61051;62.624;17.950;2023-05-14T04:25:33;102434.66;;;6.73;77.97
72909;BME280;61051;62.624;17.950;2023-05-14T04:28:02;102430.94;;;6.72;76.73
72909;BME280;61051;62.624;17.950;2023-05-14T04:30:30;102428.04;;;6.69;76.98
72909;BME280;61051;62.624;17.950;2023-05-14T04:32:59;102425.89;;;6.75;78.28
72909;BME280;61051;62.624;17.950;2023-05-14T04:35:27;102425.93;;;6.83;77.66
72909;BME280;61051;62.624;17.950;2023-05-14T04:37:56;102424.86;;;7.01;77.92
72909;BME280;61051;62.624;17.950;2023-05-14T04:40:24;102418.30;;;7.00;78.29
72909;BME280;61051;62.624;17.950;2023-05-14T04:42:54;102420.87;;;6.89;78.96
72909;BME280;61051;62.624;17.950;2023-05-14T04:45:23;102418.80;;;6.73;79.53
72909;BME280;61051;62.624;17.950;2023-05-14T04:47:51;102418.04;;;6.81;80.30
72909;BME280;61051;62.624;17.950;2023-05-14T04:50:21;102414.39;;;6.93;79.50
72909;BME280;61051;62.624;17.950;2023-05-14T04:52:49;102415.55;;;7.05;79.20
72909;BME280;61051;62.624;17.950;2023-05-14T04:55:17;102415.54;;;7.08;78.38
72909;BME280;61051;62.624;17.950;2023-05-14T04:57:46;102413.75;;;7.25;77.28
72909;BME280;61051;62.624;17.950;2023-05-14T05:00:15;102410.22;;;7.53;76.01
72909;BME280;61051;62.624;17.950;2023-05-14T05:02:44;102412.90;;;7.72;75.72
72909;BME280;61051;62.624;17.950;2023-05-14T05:05:13;102414.63;;;7.82;73.83
72909;BME280;61051;62.624;17.950;2023-05-14T05:07:41;102417.28;;;7.85;73.10
72909;BME280;61051;62.624;17.950;2023-05-14T05:10:10;102417.00;;;8.30;71.89
72909;BME280;61051;62.624;17.950;2023-05-14T05:12:38;102416.18;;;8.50;70.23
72909;BME280;61051;62.624;17.950;2023-05-14T05:15:08;102417.73;;;8.63;70.32
72909;BME280;61051;62.624;17.950;2023-05-14T05:17:37;102414.85;;;8.94;70.13
72909;BME280;61051;62.624;17.950;2023-05-14T05:20:07;102414.95;;;9.01;69.45
72909;BME280;61051;62.624;17.950;2023-05-14T05:22:36;102404.30;;;9.14;68.33
72909;BME280;61051;62.624;17.950;2023-05-14T05:25:05;102405.79;;;9.49;66.86
72909;BME280;61051;62.624;17.950;2023-05-14T05:27:33;102403.77;;;9.71;66.00
72909;BME280;61051;62.624;17.950;2023-05-14T05:30:02;102403.48;;;9.91;65.89
72909;BME280;61051;62.624;17.950;2023-05-14T05:32:30;102403.81;;;10.04;64.85
72909;BME280;61051;62.624;17.950;2023-05-14T05:34:59;102401.35;;;10.09;64.33
72909;BME280;61051;62.624;17.950;2023-05-14T05:37:29;102399.36;;;10.34;62.52
72909;BME280;61051;62.624;17.950;2023-05-14T05:39:57;102397.78;;;10.45;61.26
72909;BME280;61051;62.624;17.950;2023-05-14T05:42:26;102396.51;;;10.77;59.49
72909;BME280;61051;62.624;17.950;2023-05-14T05:44:56;102392.88;;;10.89;57.76
72909;BME280;61051;62.624;17.950;2023-05-14T05:47:25;102387.62;;;10.96;57.39
72909;BME280;61051;62.624;17.950;2023-05-14T05:49:55;102380.65;;;11.07;58.29
72909;BME280;61051;62.624;17.950;2023-05-14T05:52:24;102378.06;;;11.17;57.17
72909;BME280;61051;62.624;17.950;2023-05-14T05:54:54;102377.97;;;11.39;56.09
72909;BME280;61051;62.624;17.950;2023-05-14T05:57:23;102376.07;;;11.38;53.69
72909;BME280;61051;62.624;17.950;2023-05-14T05:59:52;102373.31;;;11.64;54.71
72909;BME280;61051;62.624;17.950;2023-05-14T06:02:21;102377.11;;;11.71;52.52
72909;BME280;61051;62.624;17.950;2023-05-14T06:04:51;102381.06;;;11.98;51.85
72909;BME280;61051;62.624;17.950;2023-05-14T06:07:20;102379.12;;;12.22;51.41
72909;BME280;61051;62.624;17.950;2023-05-14T06:09:48;102380.53;;;12.13;52.45
72909;BME280;61051;62.624;17.950;2023-05-14T06:12:18;102379.47;;;11.96;53.03
72909;BME280;61051;62.624;17.950;2023-05-14T06:14:47;102380.31;;;12.15;54.15
72909;BME280;61051;62.624;17.950;2023-05-14T06:17:15;102378.01;;;12.24;53.67
72909;BME280;61051;62.624;17.950;2023-05-14T06:19:45;102378.56;;;12.13;54.51
72909;BME280;61051;62.624;17.950;2023-05-14T06:22:14;102377.13;;;12.10;53.28
72909;BME280;61051;62.624;17.950;2023-05-14T06:24:43;102376.31;;;12.01;54.47
72909;BME280;61051;62.624;17.950;2023-05-14T06:27:11;102376.09;;;12.21;52.08
72909;BME280;61051;62.624;17.950;2023-05-14T06:29:39;102380.10;;;12.28;50.98
72909;BME280;61051;62.624;17.950;2023-05-14T06:32:07;102381.10;;;12.38;51.52
72909;BME280;61051;62.624;17.950;2023-05-14T06:34:36;102377.67;;;12.41;51.82
72909;BME280;61051;62.624;17.950;2023-05-14T06:37:05;102377.33;;;12.38;52.57
72909;BME280;61051;62.624;17.950;2023-05-14T06:39:34;102375.27;;;12.53;51.44
72909;BME280;61051;62.624;17.950;2023-05-14T06:42:02;102377.78;;;12.70;51.32
72909;BME280;61051;62.624;17.950;2023-05-14T06:44:31;102373.77;;;12.63;52.20
72909;BME280;61051;62.624;17.950;2023-05-14T06:47:01;102368.02;;;12.87;50.86
72909;BME280;61051;62.624;17.950;2023-05-14T06:49:29;102364.66;;;13.01;51.25
72909;BME280;61051;62.624;17.950;2023-05-14T06:51:57;102361.34;;;13.19;50.36
72909;BME280;61051;62.624;17.950;2023-05-14T06:54:26;102357.29;;;13.41;46.42
72909;BME280;61051;62.624;17.950;2023-05-14T06:56:56;102356.62;;;13.59;47.84
72909;BME280;61051;62.624;17.950;2023-05-14T06:59:25;102359.29;;;13.92;46.41
72909;BME280;61051;62.624;17.950;2023-05-14T07:01:54;102356.55;;;14.49;46.74
72909;BME280;61051;62.624;17.950;2023-05-14T07:04:23;102355.45;;;14.81;45.02
72909;BME280;61051;62.624;17.950;2023-05-14T07:06:51;102355.19;;;14.97;42.84
72909;BME280;61051;62.624;17.950;2023-05-14T07:09:19;102351.11;;;15.19;43.21
72909;BME280;61051;62.624;17.950;2023-05-14T07:11:48;102352.07;;;15.45;39.31
72909;BME280;61051;62.624;17.950;2023-05-14T07:14:17;102354.67;;;15.46;42.20
72909;BME280;61051;62.624;17.950;2023-05-14T07:16:45;102354.52;;;15.59;38.00
72909;BME280;61051;62.624;17.950;2023-05-14T07:19:13;102350.77;;;15.76;34.65
72909;BME280;61051;62.624;17.950;2023-05-14T07:21:41;102348.98;;;15.76;33.43
72909;BME280;61051;62.624;17.950;2023-05-14T07:24:09;102346.31;;;15.67;33.06
72909;BME280;61051;62.624;17.950;2023-05-14T07:26:38;102348.40;;;15.72;33.06
72909;BME280;61051;62.624;17.950;2023-05-14T07:29:06;102350.16;;;15.97;33.58
72909;BME280;61051;62.624;17.950;2023-05-14T07:31:34;102357.95;;;16.30;32.40
72909;BME280;61051;62.624;17.950;2023-05-14T07:34:03;102351.74;;;16.55;31.50
72909;BME280;61051;62.624;17.950;2023-05-14T07:36:31;102349.98;;;16.61;32.94
72909;BME280;61051;62.624;17.950;2023-05-14T07:38:59;102346.35;;;16.75;32.19
72909;BME280;61051;62.624;17.950;2023-05-14T07:41:28;102342.22;;;16.98;31.51
72909;BME280;61051;62.624;17.950;2023-05-14T07:43:56;102336.06;;;17.16;34.24
72909;BME280;61051;62.624;17.950;2023-05-14T07:46:24;102335.86;;;17.16;30.85
72909;BME280;61051;62.624;17.950;2023-05-14T07:48:52;102330.87;;;17.44;35.29
72909;BME280;61051;62.624;17.950;2023-05-14T07:51:21;102332.23;;;17.30;35.80
72909;BME280;61051;62.624;17.950;2023-05-14T07:53:49;102333.04;;;17.19;34.09
72909;BME280;61051;62.624;17.950;2023-05-14T07:56:18;102333.21;;;17.18;32.42
72909;BME280;61051;62.624;17.950;2023-05-14T07:58:46;102334.53;;;17.13;34.57
72909;BME280;61051;62.624;17.950;2023-05-14T08:01:14;102333.24;;;16.97;31.67
72909;BME280;61051;62.624;17.950;2023-05-14T08:03:42;102324.09;;;17.16;31.67
72909;BME280;61051;62.624;17.950;2023-05-14T08:06:10;102327.02;;;17.19;27.26
72909;BME280;61051;62.624;17.950;2023-05-14T08:08:38;102322.59;;;17.61;26.15
72909;BME280;61051;62.624;17.950;2023-05-14T08:11:07;102319.98;;;17.96;24.81
72909;BME280;61051;62.624;17.950;2023-05-14T08:13:35;102324.34;;;18.06;24.88
72909;BME280;61051;62.624;17.950;2023-05-14T08:16:04;102319.90;;;18.25;24.63
72909;BME280;61051;62.624;17.950;2023-05-14T08:18:33;102319.69;;;18.37;24.84
72909;BME280;61051;62.624;17.950;2023-05-14T08:21:01;102317.96;;;18.35;24.63
72909;BME280;61051;62.624;17.950;2023-05-14T08:23:29;102311.96;;;18.43;25.23
72909;BME280;61051;62.624;17.950;2023-05-14T08:25:58;102313.42;;;18.52;24.59
72909;BME280;61051;62.624;17.950;2023-05-14T08:28:27;102316.67;;;18.52;24.54
72909;BME280;61051;62.624;17.950;2023-05-14T08:30:56;102316.98;;;18.60;24.56
72909;BME280;61051;62.624;17.950;2023-05-14T08:33:25;102313.16;;;18.64;24.55
72909;BME280;61051;62.624;17.950;2023-05-14T08:35:54;102312.26;;;18.98;26.86
72909;BME280;61051;62.624;17.950;2023-05-14T08:38:23;102313.01;;;18.92;29.82
72909;BME280;61051;62.624;17.950;2023-05-14T08:40:56;102309.49;;;19.00;25.73
72909;BME280;61051;62.624;17.950;2023-05-14T08:43:26;102309.74;;;18.99;28.85
72909;BME280;61051;62.624;17.950;2023-05-14T08:46:00;102308.51;;;19.03;27.97
72909;BME280;61051;62.624;17.950;2023-05-14T08:48:33;102308.94;;;19.18;26.50
72909;BME280;61051;62.624;17.950;2023-05-14T08:51:02;102307.87;;;19.29;28.44
72909;BME280;61051;62.624;17.950;2023-05-14T08:53:32;102306.04;;;19.49;27.79
72909;BME280;61051;62.624;17.950;2023-05-14T08:56:00;102301.16;;;19.71;28.04
72909;BME280;61051;62.624;17.950;2023-05-14T08:58:31;102303.39;;;19.71;24.77
72909;BME280;61051;62.624;17.950;2023-05-14T09:00:59;102295.95;;;19.93;24.56
72909;BME280;61051;62.624;17.950;2023-05-14T09:03:27;102295.83;;;19.91;24.29
72909;BME280;61051;62.624;17.950;2023-05-14T09:05:57;102289.83;;;19.84;25.43
72909;BME280;61051;62.624;17.950;2023-05-14T09:08:27;102291.70;;;19.92;25.54
72909;BME280;61051;62.624;17.950;2023-05-14T09:10:56;102293.96;;;20.09;24.59
72909;BME280;61051;62.624;17.950;2023-05-14T09:13:24;102290.16;;;20.13;25.04
72909;BME280;61051;62.624;17.950;2023-05-14T09:15:54;102294.81;;;20.16;24.98
72909;BME280;61051;62.624;17.950;2023-05-14T09:18:22;102289.17;;;20.32;24.39
72909;BME280;61051;62.624;17.950;2023-05-14T09:20:51;102291.81;;;20.57;24.30
72909;BME280;61051;62.624;17.950;2023-05-14T09:23:19;102285.86;;;20.87;24.55
72909;BME280;61051;62.624;17.950;2023-05-14T09:25:47;102288.32;;;20.88;27.08
72909;BME280;61051;62.624;17.950;2023-05-14T09:28:16;102289.63;;;20.93;30.15
72909;BME280;61051;62.624;17.950;2023-05-14T09:30:48;102274.95;;;21.09;25.34
72909;BME280;61051;62.624;17.950;2023-05-14T09:33:25;102272.72;;;21.20;24.90
72909;BME280;61051;62.624;17.950;2023-05-14T09:35:57;102269.10;;;21.17;31.40
72909;BME280;61051;62.624;17.950;2023-05-14T09:38:28;102267.04;;;20.67;31.71
72909;BME280;61051;62.624;17.950;2023-05-14T09:40:58;102264.68;;;21.09;31.79
72909;BME280;61051;62.624;17.950;2023-05-14T09:43:28;102266.16;;;20.97;31.48
72909;BME280;61051;62.624;17.950;2023-05-14T09:45:56;102266.84;;;20.97;28.46
72909;BME280;61051;62.624;17.950;2023-05-14T09:48:24;102267.44;;;21.01;30.89
72909;BME280;61051;62.624;17.950;2023-05-14T09:50:53;102258.35;;;21.34;28.79
72909;BME280;61051;62.624;17.950;2023-05-14T09:53:21;102261.07;;;21.65;27.24
72909;BME280;61051;62.624;17.950;2023-05-14T09:55:49;102254.27;;;21.75;24.97
72909;BME280;61051;62.624;17.950;2023-05-14T09:58:18;102261.97;;;21.69;24.34
72909;BME280;61051;62.624;17.950;2023-05-14T10:06:23;102258.46;;;21.31;24.61
72909;BME280;61051;62.624;17.950;2023-05-14T10:08:54;102258.66;;;21.20;25.52
72909;BME280;61051;62.624;17.950;2023-05-14T10:11:24;102254.58;;;21.21;29.39
72909;BME280;61051;62.624;17.950;2023-05-14T10:14:01;102258.13;;;21.28;29.12
72909;BME280;61051;62.624;17.950;2023-05-14T10:16:33;102261.23;;;21.17;29.80
72909;BME280;61051;62.624;17.950;2023-05-14T10:19:06;102260.06;;;20.87;30.69
72909;BME280;61051;62.624;17.950;2023-05-14T10:21:37;102262.80;;;20.82;31.97
72909;BME280;61051;62.624;17.950;2023-05-14T10:24:08;102261.36;;;20.85;30.19
72909;BME280;61051;62.624;17.950;2023-05-14T10:26:39;102254.12;;;20.96;29.74
72909;BME280;61051;62.624;17.950;2023-05-14T10:29:09;102243.78;;;21.53;29.97
72909;BME280;61051;62.624;17.950;2023-05-14T10:31:47;102238.25;;;21.61;30.54
72909;BME280;61051;62.624;17.950;2023-05-14T10:34:34;102236.81;;;21.75;25.32
72909;BME280;61051;62.624;17.950;2023-05-14T10:37:06;102235.18;;;21.74;25.50
72909;BME280;61051;62.624;17.950;2023-05-14T10:39:52;102234.05;;;21.76;24.60
72909;BME280;61051;62.624;17.950;2023-05-14T10:42:24;102230.48;;;21.98;24.34
72909;BME280;61051;62.624;17.950;2023-05-14T10:44:55;102229.25;;;22.06;25.09
72909;BME280;61051;62.624;17.950;2023-05-14T10:47:25;102225.45;;;22.26;23.96
72909;BME280;61051;62.624;17.950;2023-05-14T10:49:55;102224.18;;;22.19;23.57
72909;BME280;61051;62.624;17.950;2023-05-14T10:52:25;102221.11;;;22.17;23.27
72909;BME280;61051;62.624;17.950;2023-05-14T10:54:55;102218.36;;;22.23;23.31
72909;BME280;61051;62.624;17.950;2023-05-14T10:57:26;102216.43;;;22.35;22.96
72909;BME280;61051;62.624;17.950;2023-05-14T10:59:56;102216.58;;;22.24;23.08
72909;BME280;61051;62.624;17.950;2023-05-14T11:02:26;102213.14;;;22.13;23.67
72909;BME280;61051;62.624;17.950;2023-05-14T11:04:56;102209.60;;;22.81;26.15
72909;BME280;61051;62.624;17.950;2023-05-14T11:07:28;102211.40;;;22.88;27.29
72909;BME280;61051;62.624;17.950;2023-05-14T11:10:00;102208.16;;;23.62;23.03
72909;BME280;61051;62.624;17.950;2023-05-14T11:12:29;102209.49;;;24.80;23.08
72909;BME280;61051;62.624;17.950;2023-05-14T11:15:02;102207.37;;;25.91;21.98
72909;BME280;61051;62.624;17.950;2023-05-14T11:17:34;102207.48;;;27.04;20.62
72909;BME280;61051;62.624;17.950;2023-05-14T11:20:05;102211.73;;;27.69;17.60
72909;BME280;61051;62.624;17.950;2023-05-14T11:22:34;102207.51;;;27.33;18.36
72909;BME280;61051;62.624;17.950;2023-05-14T11:25:04;102203.83;;;27.61;20.59
72909;BME280;61051;62.624;17.950;2023-05-14T11:27:35;102198.51;;;27.91;20.00
72909;BME280;61051;62.624;17.950;2023-05-14T11:30:12;102199.38;;;28.59;18.51
72909;BME280;61051;62.624;17.950;2023-05-14T11:32:41;102200.07;;;28.77;16.75
72909;BME280;61051;62.624;17.950;2023-05-14T11:35:11;102191.15;;;28.87;16.84
72909;BME280;61051;62.624;17.950;2023-05-14T11:37:40;102191.77;;;29.05;16.22
72909;BME280;61051;62.624;17.950;2023-05-14T11:40:15;102183.43;;;29.50;16.13
72909;BME280;61051;62.624;17.950;2023-05-14T11:42:43;102169.76;;;30.49;15.31
72909;BME280;61051;62.624;17.950;2023-05-14T11:45:23;102163.14;;;31.34;15.59
72909;BME280;61051;62.624;17.950;2023-05-14T11:47:53;102155.48;;;32.12;14.82
72909;BME280;61051;62.624;17.950;2023-05-14T11:50:21;102156.84;;;32.05;14.86
72909;BME280;61051;62.624;17.950;2023-05-14T11:52:54;102155.85;;;32.11;15.98
72909;BME280;61051;62.624;17.950;2023-05-14T11:55:24;102153.78;;;31.64;14.75
72909;BME280;61051;62.624;17.950;2023-05-14T11:57:54;102156.60;;;31.15;15.73
72909;BME280;61051;62.624;17.950;2023-05-14T12:00:22;102159.04;;;31.86;13.88
72909;BME280;61051;62.624;17.950;2023-05-14T12:02:53;102156.52;;;32.18;15.10
72909;BME280;61051;62.624;17.950;2023-05-14T12:05:21;102153.71;;;31.23;14.37
72909;BME280;61051;62.624;17.950;2023-05-14T12:07:51;102152.64;;;31.38;13.98
72909;BME280;61051;62.624;17.950;2023-05-14T12:10:20;102158.67;;;31.34;14.85
72909;BME280;61051;62.624;17.950;2023-05-14T12:12:50;102151.29;;;31.58;15.22
72909;BME280;61051;62.624;17.950;2023-05-14T12:15:19;102150.29;;;31.09;15.84
72909;BME280;61051;62.624;17.950;2023-05-14T12:17:50;102147.88;;;31.14;15.02
72909;BME280;61051;62.624;17.950;2023-05-14T12:20:18;102143.84;;;32.29;15.92
72909;BME280;61051;62.624;17.950;2023-05-14T12:22:47;102139.29;;;32.84;15.27
72909;BME280;61051;62.624;17.950;2023-05-14T12:25:15;102138.41;;;33.09;12.52
72909;BME280;61051;62.624;17.950;2023-05-14T12:27:45;102132.67;;;34.26;13.51
72909;BME280;61051;62.624;17.950;2023-05-14T12:30:13;102130.51;;;34.15;13.82
72909;BME280;61051;62.624;17.950;2023-05-14T12:32:43;102125.88;;;34.99;13.61
72909;BME280;61051;62.624;17.950;2023-05-14T12:35:11;102120.94;;;34.65;13.08
72909;BME280;61051;62.624;17.950;2023-05-14T12:37:40;102120.04;;;34.07;13.91
72909;BME280;61051;62.624;17.950;2023-05-14T12:40:10;102118.10;;;34.29;11.90
72909;BME280;61051;62.624;17.950;2023-05-14T12:42:39;102118.72;;;34.58;14.20
72909;BME280;61051;62.624;17.950;2023-05-14T12:45:10;102123.65;;;34.94;12.04
72909;BME280;61051;62.624;17.950;2023-05-14T12:47:39;102121.39;;;34.08;12.93
72909;BME280;61051;62.624;17.950;2023-05-14T12:50:08;102121.49;;;33.06;13.83
72909;BME280;61051;62.624;17.950;2023-05-14T12:52:37;102116.38;;;32.36;13.76
72909;BME280;61051;62.624;17.950;2023-05-14T12:55:07;102113.33;;;32.93;13.64
72909;BME280;61051;62.624;17.950;2023-05-14T12:57:37;102116.87;;;33.39;13.44
72909;BME280;61051;62.624;17.950;2023-05-14T13:00:06;102114.43;;;33.08;13.95
72909;BME280;61051;62.624;17.950;2023-05-14T13:02:35;102109.77;;;32.26;14.62
72909;BME280;61051;62.624;17.950;2023-05-14T13:05:05;102104.73;;;32.24;15.35